sensor_id;sensor_type;location;lat;lon;timestamp;temperature;humidity
2010;DHT22;1008;47.404;8.502;2023-06-14T00:00:41;19.50;47.80
2010;DHT22;1008;47.404;8.502;2023-06-14T00:03:09;19.60;48.10
2010;DHT22;1008;47.404;8.502;2023-06-14T00:05:37;19.20;48.00
2010;DHT22;1008;47.404;8.502;2023-06-14T00:08:08;19.20;48.90
2010;DHT22;1008;47.404;8.502;2023-06-14T00:10:37;19.20;49.70
2010;DHT22;1008;47.404;8.502;2023-06-14T00:13:06;19.40;49.80
2010;DHT22;1008;47.404;8.502;2023-06-14T00:15:34;19.20;49.80
2010;DHT22;1008;47.404;8.502;2023-06-14T00:18:01;19.20;50.90
2010;DHT22;1008;47.404;8.502;2023-06-14T00:20:28;19.00;50.00
2010;DHT22;1008;47.404;8.502;2023-06-14T00:22:56;18.90;51.20
2010;DHT22;1008;47.404;8.502;2023-06-14T00:25:23;18.90;51.10
2010;DHT22;1008;47.404;8.502;2023-06-14T00:27:52;19.00;51.30
2010;DHT22;1008;47.404;8.502;2023-06-14T00:30:19;19.10;50.50
2010;DHT22;1008;47.404;8.502;2023-06-14T00:32:46;19.00;50.70
2010;DHT22;1008;47.404;8.502;2023-06-14T00:35:13;19.00;51.00
2010;DHT22;1008;47.404;8.502;2023-06-14T00:37:40;18.90;51.10
2010;DHT22;1008;47.404;8.502;2023-06-14T00:40:07;18.80;50.40
2010;DHT22;1008;47.404;8.502;2023-06-14T00:42:34;18.80;51.10
2010;DHT22;1008;47.404;8.502;2023-06-14T00:45:03;18.30;50.80
2010;DHT22;1008;47.404;8.502;2023-06-14T00:47:30;18.30;52.30
2010;DHT22;1008;47.404;8.502;2023-06-14T00:49:56;18.40;52.40
2010;DHT22;1008;47.404;8.502;2023-06-14T00:52:24;18.50;51.50
2010;DHT22;1008;47.404;8.502;2023-06-14T00:54:51;18.50;51.70
2010;DHT22;1008;47.404;8.502;2023-06-14T00:57:17;18.50;51.20
2010;DHT22;1008;47.404;8.502;2023-06-14T00:59:48;18.60;50.80
2010;DHT22;1008;47.404;8.502;2023-06-14T01:02:17;18.50;50.70
2010;DHT22;1008;47.404;8.502;2023-06-14T01:04:46;18.40;50.80
2010;DHT22;1008;47.404;8.502;2023-06-14T01:07:18;18.30;50.60
2010;DHT22;1008;47.404;8.502;2023-06-14T01:09:55;18.30;50.60
2010;DHT22;1008;47.404;8.502;2023-06-14T01:12:31;18.30;50.70
2010;DHT22;1008;47.404;8.502;2023-06-14T01:15:02;18.30;51.50
2010;DHT22;1008;47.404;8.502;2023-06-14T01:17:32;18.30;51.20
2010;DHT22;1008;47.404;8.502;2023-06-14T01:20:01;18.20;50.40
2010;DHT22;1008;47.404;8.502;2023-06-14T01:22:30;18.30;50.40
2010;DHT22;1008;47.404;8.502;2023-06-14T01:24:59;18.30;50.00
2010;DHT22;1008;47.404;8.502;2023-06-14T01:27:26;18.00;50.50
2010;DHT22;1008;47.404;8.502;2023-06-14T01:29:55;17.90;50.90
2010;DHT22;1008;47.404;8.502;2023-06-14T01:32:23;17.90;50.50
2010;DHT22;1008;47.404;8.502;2023-06-14T01:34:51;18.00;50.70
2010;DHT22;1008;47.404;8.502;2023-06-14T01:37:18;17.50;50.50
2010;DHT22;1008;47.404;8.502;2023-06-14T01:39:47;17.80;50.60
2010;DHT22;1008;47.404;8.502;2023-06-14T01:42:16;17.70;50.60
2010;DHT22;1008;47.404;8.502;2023-06-14T01:44:44;17.70;51.10
2010;DHT22;1008;47.404;8.502;2023-06-14T01:47:12;17.70;51.00
2010;DHT22;1008;47.404;8.502;2023-06-14T01:49:39;17.80;50.90
2010;DHT22;1008;47.404;8.502;2023-06-14T01:52:06;17.80;50.70
2010;DHT22;1008;47.404;8.502;2023-06-14T01:54:35;17.70;50.60
2010;DHT22;1008;47.404;8.502;2023-06-14T01:57:03;17.80;50.70
2010;DHT22;1008;47.404;8.502;2023-06-14T01:59:33;17.70;50.70
2010;DHT22;1008;47.404;8.502;2023-06-14T02:02:01;17.70;50.60
2010;DHT22;1008;47.404;8.502;2023-06-14T02:04:28;17.70;50.60
2010;DHT22;1008;47.404;8.502;2023-06-14T02:06:54;17.60;50.90
2010;DHT22;1008;47.404;8.502;2023-06-14T02:09:21;17.60;50.90
2010;DHT22;1008;47.404;8.502;2023-06-14T02:11:49;17.50;50.30
2010;DHT22;1008;47.404;8.502;2023-06-14T02:14:16;17.50;50.80
2010;DHT22;1008;47.404;8.502;2023-06-14T02:16:44;17.50;51.00
2010;DHT22;1008;47.404;8.502;2023-06-14T02:19:14;17.60;51.30
2010;DHT22;1008;47.404;8.502;2023-06-14T02:21:41;17.60;51.20
2010;DHT22;1008;47.404;8.502;2023-06-14T02:24:08;17.50;51.10
2010;DHT22;1008;47.404;8.502;2023-06-14T02:26:35;17.60;51.30
2010;DHT22;1008;47.404;8.502;2023-06-14T02:29:03;17.60;51.10
2010;DHT22;1008;47.404;8.502;2023-06-14T02:31:31;17.40;51.00
2010;DHT22;1008;47.404;8.502;2023-06-14T02:33:59;17.60;51.30
2010;DHT22;1008;47.404;8.502;2023-06-14T02:36:26;17.40;51.40
2010;DHT22;1008;47.404;8.502;2023-06-14T02:38:52;17.40;51.60
2010;DHT22;1008;47.404;8.502;2023-06-14T02:41:20;17.50;51.50
2010;DHT22;1008;47.404;8.502;2023-06-14T02:43:47;17.50;51.40
2010;DHT22;1008;47.404;8.502;2023-06-14T02:46:14;17.20;51.60
2010;DHT22;1008;47.404;8.502;2023-06-14T02:48:41;17.10;51.80
2010;DHT22;1008;47.404;8.502;2023-06-14T02:51:09;17.10;51.90
2010;DHT22;1008;47.404;8.502;2023-06-14T02:53:36;17.10;52.20
2010;DHT22;1008;47.404;8.502;2023-06-14T02:56:03;17.20;52.20
2010;DHT22;1008;47.404;8.502;2023-06-14T02:58:30;17.20;52.20
2010;DHT22;1008;47.404;8.502;2023-06-14T03:00:58;17.20;52.50
2010;DHT22;1008;47.404;8.502;2023-06-14T03:03:28;17.40;52.80
2010;DHT22;1008;47.404;8.502;2023-06-14T03:05:55;17.30;52.70
2010;DHT22;1008;47.404;8.502;2023-06-14T03:08:23;17.30;52.60
2010;DHT22;1008;47.404;8.502;2023-06-14T03:10:52;17.30;52.70
2010;DHT22;1008;47.404;8.502;2023-06-14T03:13:19;17.40;52.70
2010;DHT22;1008;47.404;8.502;2023-06-14T03:15:47;17.20;53.00
2010;DHT22;1008;47.404;8.502;2023-06-14T03:18:15;17.20;53.00
2010;DHT22;1008;47.404;8.502;2023-06-14T03:20:42;17.20;53.20
2010;DHT22;1008;47.404;8.502;2023-06-14T03:23:11;17.20;53.40
2010;DHT22;1008;47.404;8.502;2023-06-14T03:25:40;17.30;53.40
2010;DHT22;1008;47.404;8.502;2023-06-14T03:28:07;17.30;53.30
2010;DHT22;1008;47.404;8.502;2023-06-14T03:30:34;17.20;53.00
2010;DHT22;1008;47.404;8.502;2023-06-14T03:33:01;17.20;53.10
2010;DHT22;1008;47.404;8.502;2023-06-14T03:35:28;17.10;52.90
2010;DHT22;1008;47.404;8.502;2023-06-14T03:37:55;17.20;53.50
2010;DHT22;1008;47.404;8.502;2023-06-14T03:40:22;17.20;53.40
2010;DHT22;1008;47.404;8.502;2023-06-14T03:42:53;17.20;53.70
2010;DHT22;1008;47.404;8.502;2023-06-14T03:45:20;17.10;53.90
2010;DHT22;1008;47.404;8.502;2023-06-14T03:47:47;17.30;54.00
2010;DHT22;1008;47.404;8.502;2023-06-14T03:50:14;17.10;54.10
2010;DHT22;1008;47.404;8.502;2023-06-14T03:52:41;17.10;54.30
2010;DHT22;1008;47.404;8.502;2023-06-14T03:55:09;17.10;54.30
2010;DHT22;1008;47.404;8.502;2023-06-14T03:57:38;17.20;54.00
2010;DHT22;1008;47.404;8.502;2023-06-14T04:00:08;17.20;53.80
2010;DHT22;1008;47.404;8.502;2023-06-14T04:02:35;17.20;54.10
2010;DHT22;1008;47.404;8.502;2023-06-14T04:05:02;17.20;53.90
2010;DHT22;1008;47.404;8.502;2023-06-14T04:07:30;17.10;54.10
2010;DHT22;1008;47.404;8.502;2023-06-14T04:09:57;17.20;54.30
2010;DHT22;1008;47.404;8.502;2023-06-14T04:12:24;17.10;54.30
2010;DHT22;1008;47.404;8.502;2023-06-14T04:14:51;17.10;54.10
2010;DHT22;1008;47.404;8.502;2023-06-14T04:17:19;16.90;54.00
2010;DHT22;1008;47.404;8.502;2023-06-14T04:19:46;16.80;54.00
2010;DHT22;1008;47.404;8.502;2023-06-14T04:22:13;16.80;54.10
2010;DHT22;1008;47.404;8.502;2023-06-14T04:24:39;16.80;54.20
2010;DHT22;1008;47.404;8.502;2023-06-14T04:27:07;17.00;54.70
2010;DHT22;1008;47.404;8.502;2023-06-14T04:29:34;16.80;54.50
2010;DHT22;1008;47.404;8.502;2023-06-14T04:32:01;16.80;54.80
2010;DHT22;1008;47.404;8.502;2023-06-14T04:34:29;16.90;57.00
2010;DHT22;1008;47.404;8.502;2023-06-14T04:36:59;16.80;57.20
2010;DHT22;1008;47.404;8.502;2023-06-14T04:39:26;17.10;56.80
2010;DHT22;1008;47.404;8.502;2023-06-14T04:41:54;17.40;57.20
2010;DHT22;1008;47.404;8.502;2023-06-14T04:44:23;17.80;56.10
2010;DHT22;1008;47.404;8.502;2023-06-14T04:46:55;17.90;56.10
2010;DHT22;1008;47.404;8.502;2023-06-14T04:49:22;18.20;55.60
2010;DHT22;1008;47.404;8.502;2023-06-14T04:51:51;18.20;55.20
2010;DHT22;1008;47.404;8.502;2023-06-14T04:54:22;18.40;54.60
2010;DHT22;1008;47.404;8.502;2023-06-14T04:56:51;18.40;54.40
2010;DHT22;1008;47.404;8.502;2023-06-14T04:59:18;18.10;54.00
2010;DHT22;1008;47.404;8.502;2023-06-14T05:01:45;18.00;54.90
2010;DHT22;1008;47.404;8.502;2023-06-14T05:04:13;18.40;55.00
2010;DHT22;1008;47.404;8.502;2023-06-14T05:06:40;18.30;54.20
2010;DHT22;1008;47.404;8.502;2023-06-14T05:09:08;17.80;55.00
2010;DHT22;1008;47.404;8.502;2023-06-14T05:11:35;17.40;56.50
2010;DHT22;1008;47.404;8.502;2023-06-14T05:14:02;17.50;56.60
2010;DHT22;1008;47.404;8.502;2023-06-14T05:16:29;17.60;55.00
2010;DHT22;1008;47.404;8.502;2023-06-14T05:18:55;17.60;54.90
2010;DHT22;1008;47.404;8.502;2023-06-14T05:21:22;17.70;55.40
2010;DHT22;1008;47.404;8.502;2023-06-14T05:23:49;17.60;55.50
2010;DHT22;1008;47.404;8.502;2023-06-14T05:26:18;17.90;55.30
2010;DHT22;1008;47.404;8.502;2023-06-14T05:28:46;18.20;54.70
2010;DHT22;1008;47.404;8.502;2023-06-14T05:31:13;18.50;53.70
2010;DHT22;1008;47.404;8.502;2023-06-14T05:33:40;18.80;53.60
2010;DHT22;1008;47.404;8.502;2023-06-14T05:36:07;19.20;54.50
2010;DHT22;1008;47.404;8.502;2023-06-14T05:38:33;18.80;52.70
2010;DHT22;1008;47.404;8.502;2023-06-14T05:41:01;18.90;52.80
2010;DHT22;1008;47.404;8.502;2023-06-14T05:43:29;18.90;53.00
2010;DHT22;1008;47.404;8.502;2023-06-14T05:45:57;19.00;53.20
2010;DHT22;1008;47.404;8.502;2023-06-14T05:48:24;19.00;53.00
2010;DHT22;1008;47.404;8.502;2023-06-14T05:50:50;19.00;53.10
2010;DHT22;1008;47.404;8.502;2023-06-14T05:53:17;18.90;52.90
2010;DHT22;1008;47.404;8.502;2023-06-14T05:55:44;18.90;53.20
2010;DHT22;1008;47.404;8.502;2023-06-14T05:58:11;19.10;53.40
2010;DHT22;1008;47.404;8.502;2023-06-14T06:00:40;19.10;53.60
2010;DHT22;1008;47.404;8.502;2023-06-14T06:03:07;18.80;53.90
2010;DHT22;1008;47.404;8.502;2023-06-14T06:05:34;18.80;54.00
2010;DHT22;1008;47.404;8.502;2023-06-14T06:08:01;18.90;53.70
2010;DHT22;1008;47.404;8.502;2023-06-14T06:10:28;19.30;53.80
2010;DHT22;1008;47.404;8.502;2023-06-14T06:12:54;19.00;53.20
2010;DHT22;1008;47.404;8.502;2023-06-14T06:15:21;18.90;53.10
2010;DHT22;1008;47.404;8.502;2023-06-14T06:17:49;19.30;53.80
2010;DHT22;1008;47.404;8.502;2023-06-14T06:20:16;19.20;53.90
2010;DHT22;1008;47.404;8.502;2023-06-14T06:22:43;19.10;53.50
2010;DHT22;1008;47.404;8.502;2023-06-14T06:25:10;18.90;53.60
2010;DHT22;1008;47.404;8.502;2023-06-14T06:27:37;19.00;53.60
2010;DHT22;1008;47.404;8.502;2023-06-14T06:30:07;19.20;54.20
2010;DHT22;1008;47.404;8.502;2023-06-14T06:32:33;19.30;53.90
2010;DHT22;1008;47.404;8.502;2023-06-14T06:35:01;19.60;53.50
2010;DHT22;1008;47.404;8.502;2023-06-14T06:37:31;19.70;53.00
2010;DHT22;1008;47.404;8.502;2023-06-14T06:39:58;19.60;52.10
2010;DHT22;1008;47.404;8.502;2023-06-14T06:42:25;19.60;52.60
2010;DHT22;1008;47.404;8.502;2023-06-14T06:44:51;19.80;52.40
2010;DHT22;1008;47.404;8.502;2023-06-14T06:47:18;19.90;52.40
2010;DHT22;1008;47.404;8.502;2023-06-14T06:49:45;20.10;52.60
2010;DHT22;1008;47.404;8.502;2023-06-14T06:52:13;20.10;52.00
2010;DHT22;1008;47.404;8.502;2023-06-14T06:54:40;20.10;51.60
2010;DHT22;1008;47.404;8.502;2023-06-14T06:57:07;20.10;52.20
2010;DHT22;1008;47.404;8.502;2023-06-14T06:59:35;20.20;52.00
2010;DHT22;1008;47.404;8.502;2023-06-14T07:02:01;20.10;52.20
2010;DHT22;1008;47.404;8.502;2023-06-14T07:04:28;20.10;53.10
2010;DHT22;1008;47.404;8.502;2023-06-14T07:06:55;20.10;53.50
2010;DHT22;1008;47.404;8.502;2023-06-14T07:09:23;20.30;52.60
2010;DHT22;1008;47.404;8.502;2023-06-14T07:11:50;20.60;52.40
2010;DHT22;1008;47.404;8.502;2023-06-14T07:14:17;20.70;51.60
2010;DHT22;1008;47.404;8.502;2023-06-14T07:16:44;20.70;51.80
2010;DHT22;1008;47.404;8.502;2023-06-14T07:19:12;20.80;51.10
2010;DHT22;1008;47.404;8.502;2023-06-14T07:21:38;20.80;51.60
2010;DHT22;1008;47.404;8.502;2023-06-14T07:24:05;20.70;51.60
2010;DHT22;1008;47.404;8.502;2023-06-14T07:26:34;20.90;51.40
2010;DHT22;1008;47.404;8.502;2023-06-14T07:29:01;21.00;51.00
2010;DHT22;1008;47.404;8.502;2023-06-14T07:31:28;21.10;51.30
2010;DHT22;1008;47.404;8.502;2023-06-14T07:33:55;21.10;51.00
2010;DHT22;1008;47.404;8.502;2023-06-14T07:36:22;21.20;50.50
2010;DHT22;1008;47.404;8.502;2023-06-14T07:38:49;21.30;50.00
2010;DHT22;1008;47.404;8.502;2023-06-14T07:41:16;21.60;50.70
2010;DHT22;1008;47.404;8.502;2023-06-14T07:43:44;21.70;50.40
2010;DHT22;1008;47.404;8.502;2023-06-14T07:46:11;21.40;50.40
2010;DHT22;1008;47.404;8.502;2023-06-14T07:48:37;21.50;50.20
2010;DHT22;1008;47.404;8.502;2023-06-14T07:51:04;21.50;50.10
2010;DHT22;1008;47.404;8.502;2023-06-14T07:53:31;21.50;49.60
2010;DHT22;1008;47.404;8.502;2023-06-14T07:55:58;21.80;49.70
2010;DHT22;1008;47.404;8.502;2023-06-14T07:58:25;22.00;49.20
2010;DHT22;1008;47.404;8.502;2023-06-14T08:00:53;22.10;49.60
2010;DHT22;1008;47.404;8.502;2023-06-14T08:03:20;22.30;49.40
2010;DHT22;1008;47.404;8.502;2023-06-14T08:05:47;22.40;49.30
2010;DHT22;1008;47.404;8.502;2023-06-14T08:08:14;22.50;49.30
2010;DHT22;1008;47.404;8.502;2023-06-14T08:10:42;22.20;48.20
2010;DHT22;1008;47.404;8.502;2023-06-14T08:13:08;22.60;48.70
2010;DHT22;1008;47.404;8.502;2023-06-14T08:15:35;22.70;48.90
2010;DHT22;1008;47.404;8.502;2023-06-14T08:18:03;22.90;47.90
2010;DHT22;1008;47.404;8.502;2023-06-14T08:20:30;23.30;47.40
2010;DHT22;1008;47.404;8.502;2023-06-14T08:22:57;22.90;47.30
2010;DHT22;1008;47.404;8.502;2023-06-14T08:25:24;22.90;48.00
2010;DHT22;1008;47.404;8.502;2023-06-14T08:27:51;23.00;48.40
2010;DHT22;1008;47.404;8.502;2023-06-14T08:30:18;23.20;47.60
2010;DHT22;1008;47.404;8.502;2023-06-14T08:32:45;23.60;47.00
2010;DHT22;1008;47.404;8.502;2023-06-14T08:35:13;23.60;46.90
2010;DHT22;1008;47.404;8.502;2023-06-14T08:37:40;23.70;47.50
2010;DHT22;1008;47.404;8.502;2023-06-14T08:40:19;23.80;47.30
2010;DHT22;1008;47.404;8.502;2023-06-14T08:42:48;23.90;46.90
2010;DHT22;1008;47.404;8.502;2023-06-14T08:45:16;23.90;46.20
2010;DHT22;1008;47.404;8.502;2023-06-14T08:47:44;24.00;45.10
2010;DHT22;1008;47.404;8.502;2023-06-14T08:50:13;24.10;46.20
2010;DHT22;1008;47.404;8.502;2023-06-14T08:52:45;24.00;45.10
2010;DHT22;1008;47.404;8.502;2023-06-14T08:55:16;24.10;46.00
2010;DHT22;1008;47.404;8.502;2023-06-14T08:57:46;24.20;44.70
2010;DHT22;1008;47.404;8.502;2023-06-14T09:00:15;24.20;44.00
2010;DHT22;1008;47.404;8.502;2023-06-14T09:02:42;24.40;44.40
2010;DHT22;1008;47.404;8.502;2023-06-14T09:05:10;24.80;45.00
2010;DHT22;1008;47.404;8.502;2023-06-14T09:07:40;24.80;43.20
2010;DHT22;1008;47.404;8.502;2023-06-14T09:10:09;24.90;45.20
2010;DHT22;1008;47.404;8.502;2023-06-14T09:12:36;24.80;44.60
2010;DHT22;1008;47.404;8.502;2023-06-14T09:15:04;24.90;44.00
2010;DHT22;1008;47.404;8.502;2023-06-14T09:17:32;25.00;44.20
2010;DHT22;1008;47.404;8.502;2023-06-14T09:20:00;25.30;44.00
2010;DHT22;1008;47.404;8.502;2023-06-14T09:22:29;25.60;44.40
2010;DHT22;1008;47.404;8.502;2023-06-14T09:24:58;25.40;44.70
2010;DHT22;1008;47.404;8.502;2023-06-14T09:27:25;25.60;43.00
2010;DHT22;1008;47.404;8.502;2023-06-14T09:29:53;25.60;43.10
2010;DHT22;1008;47.404;8.502;2023-06-14T09:32:20;25.60;42.80
2010;DHT22;1008;47.404;8.502;2023-06-14T09:34:47;25.40;43.60
2010;DHT22;1008;47.404;8.502;2023-06-14T09:37:27;25.50;43.30
2010;DHT22;1008;47.404;8.502;2023-06-14T09:39:54;25.90;43.50
2010;DHT22;1008;47.404;8.502;2023-06-14T09:42:22;25.90;42.60
2010;DHT22;1008;47.404;8.502;2023-06-14T09:44:53;26.10;42.70
2010;DHT22;1008;47.404;8.502;2023-06-14T09:47:21;26.20;42.30
2010;DHT22;1008;47.404;8.502;2023-06-14T09:49:48;26.30;42.90
2010;DHT22;1008;47.404;8.502;2023-06-14T09:52:16;26.30;43.00
2010;DHT22;1008;47.404;8.502;2023-06-14T09:54:45;26.30;41.70
2010;DHT22;1008;47.404;8.502;2023-06-14T09:57:14;26.20;42.40
2010;DHT22;1008;47.404;8.502;2023-06-14T09:59:43;26.20;41.50
2010;DHT22;1008;47.404;8.502;2023-06-14T10:02:14;26.20;42.10
2010;DHT22;1008;47.404;8.502;2023-06-14T10:04:57;26.40;43.30
2010;DHT22;1008;47.404;8.502;2023-06-14T10:07:26;26.70;41.80
2010;DHT22;1008;47.404;8.502;2023-06-14T10:09:56;26.90;41.60
2010;DHT22;1008;47.404;8.502;2023-06-14T10:12:23;27.10;42.60
2010;DHT22;1008;47.404;8.502;2023-06-14T10:14:52;27.40;42.00
2010;DHT22;1008;47.404;8.502;2023-06-14T10:17:27;27.40;41.60
2010;DHT22;1008;47.404;8.502;2023-06-14T10:20:07;27.50;41.80
2010;DHT22;1008;47.404;8.502;2023-06-14T10:22:43;27.50;41.50
2010;DHT22;1008;47.404;8.502;2023-06-14T10:25:13;27.70;40.40
2010;DHT22;1008;47.404;8.502;2023-06-14T10:27:52;27.80;39.10
2010;DHT22;1008;47.404;8.502;2023-06-14T10:30:25;27.50;39.50
2010;DHT22;1008;47.404;8.502;2023-06-14T10:33:05;27.20;39.70
2010;DHT22;1008;47.404;8.502;2023-06-14T10:35:33;27.40;40.70
2010;DHT22;1008;47.404;8.502;2023-06-14T10:38:09;27.50;40.50
2010;DHT22;1008;47.404;8.502;2023-06-14T10:40:36;27.80;40.80
2010;DHT22;1008;47.404;8.502;2023-06-14T10:43:22;27.90;39.90
2010;DHT22;1008;47.404;8.502;2023-06-14T10:46:18;28.20;40.30
2010;DHT22;1008;47.404;8.502;2023-06-14T10:48:48;28.20;39.20
2010;DHT22;1008;47.404;8.502;2023-06-14T10:51:16;28.10;39.60
2010;DHT22;1008;47.404;8.502;2023-06-14T10:53:46;28.40;39.50
2010;DHT22;1008;47.404;8.502;2023-06-14T10:56:23;28.20;38.90
2010;DHT22;1008;47.404;8.502;2023-06-14T10:58:52;28.30;38.80
2010;DHT22;1008;47.404;8.502;2023-06-14T11:01:31;28.40;37.30
2010;DHT22;1008;47.404;8.502;2023-06-14T11:04:07;28.30;37.60
2010;DHT22;1008;47.404;8.502;2023-06-14T11:06:47;28.40;37.40
2010;DHT22;1008;47.404;8.502;2023-06-14T11:09:50;28.80;37.90
2010;DHT22;1008;47.404;8.502;2023-06-14T11:12:20;28.90;37.30
2010;DHT22;1008;47.404;8.502;2023-06-14T11:14:48;29.00;37.70
2010;DHT22;1008;47.404;8.502;2023-06-14T11:17:16;29.10;37.50
2010;DHT22;1008;47.404;8.502;2023-06-14T11:19:44;29.50;36.20
2010;DHT22;1008;47.404;8.502;2023-06-14T11:22:10;29.40;36.70
2010;DHT22;1008;47.404;8.502;2023-06-14T11:24:37;29.50;37.30
2010;DHT22;1008;47.404;8.502;2023-06-14T11:27:04;29.30;36.10
2010;DHT22;1008;47.404;8.502;2023-06-14T11:29:31;29.40;36.10
2010;DHT22;1008;47.404;8.502;2023-06-14T11:31:58;29.40;35.40
2010;DHT22;1008;47.404;8.502;2023-06-14T11:34:26;29.10;35.00
2010;DHT22;1008;47.404;8.502;2023-06-14T11:36:53;28.90;37.90
2010;DHT22;1008;47.404;8.502;2023-06-14T11:39:24;28.90;39.90
2010;DHT22;1008;47.404;8.502;2023-06-14T11:41:51;29.10;37.90
2010;DHT22;1008;47.404;8.502;2023-06-14T11:44:18;29.10;35.90
2010;DHT22;1008;47.404;8.502;2023-06-14T11:46:45;28.70;36.90
2010;DHT22;1008;47.404;8.502;2023-06-14T11:49:11;28.50;35.50
2010;DHT22;1008;47.404;8.502;2023-06-14T11:51:39;28.50;37.90
2010;DHT22;1008;47.404;8.502;2023-06-14T11:54:09;28.70;38.00
2010;DHT22;1008;47.404;8.502;2023-06-14T11:56:36;28.90;37.40
2010;DHT22;1008;47.404;8.502;2023-06-14T11:59:03;28.90;38.30
2010;DHT22;1008;47.404;8.502;2023-06-14T12:01:31;29.10;37.60
2010;DHT22;1008;47.404;8.502;2023-06-14T12:03:59;29.40;38.50
2010;DHT22;1008;47.404;8.502;2023-06-14T12:06:27;29.40;37.00
2010;DHT22;1008;47.404;8.502;2023-06-14T12:09:00;29.80;38.50
2010;DHT22;1008;47.404;8.502;2023-06-14T12:11:33;30.00;36.80
2010;DHT22;1008;47.404;8.502;2023-06-14T12:14:00;29.50;36.70
2010;DHT22;1008;47.404;8.502;2023-06-14T12:16:31;29.70;37.90
2010;DHT22;1008;47.404;8.502;2023-06-14T12:19:00;29.70;38.00
2010;DHT22;1008;47.404;8.502;2023-06-14T12:21:28;29.80;37.20
2010;DHT22;1008;47.404;8.502;2023-06-14T12:23:55;29.90;36.30
2010;DHT22;1008;47.404;8.502;2023-06-14T12:26:25;30.10;36.70
2010;DHT22;1008;47.404;8.502;2023-06-14T12:28:53;29.80;35.80
2010;DHT22;1008;47.404;8.502;2023-06-14T12:31:19;29.70;36.80
2010;DHT22;1008;47.404;8.502;2023-06-14T12:33:46;29.60;36.50
2010;DHT22;1008;47.404;8.502;2023-06-14T12:36:14;29.50;36.40
2010;DHT22;1008;47.404;8.502;2023-06-14T12:38:42;29.30;36.90
2010;DHT22;1008;47.404;8.502;2023-06-14T12:41:09;29.30;35.60
2010;DHT22;1008;47.404;8.502;2023-06-14T12:43:37;29.30;36.00
2010;DHT22;1008;47.404;8.502;2023-06-14T12:46:04;29.70;36.00
2010;DHT22;1008;47.404;8.502;2023-06-14T12:48:31;29.60;36.20
2010;DHT22;1008;47.404;8.502;2023-06-14T12:50:59;29.90;36.80
2010;DHT22;1008;47.404;8.502;2023-06-14T12:53:26;29.90;35.30
2010;DHT22;1008;47.404;8.502;2023-06-14T12:55:53;30.00;36.20
2010;DHT22;1008;47.404;8.502;2023-06-14T12:58:20;30.30;35.80
2010;DHT22;1008;47.404;8.502;2023-06-14T13:00:48;30.50;34.50
2010;DHT22;1008;47.404;8.502;2023-06-14T13:03:15;30.60;33.20
2010;DHT22;1008;47.404;8.502;2023-06-14T13:05:41;30.30;33.30
2010;DHT22;1008;47.404;8.502;2023-06-14T13:08:08;30.10;36.00
2010;DHT22;1008;47.404;8.502;2023-06-14T13:10:35;30.10;33.80
2010;DHT22;1008;47.404;8.502;2023-06-14T13:13:02;30.10;34.70
2010;DHT22;1008;47.404;8.502;2023-06-14T13:15:29;30.20;34.20
2010;DHT22;1008;47.404;8.502;2023-06-14T13:17:57;30.20;34.60
2010;DHT22;1008;47.404;8.502;2023-06-14T13:20:24;30.20;34.00
2010;DHT22;1008;47.404;8.502;2023-06-14T13:22:51;29.80;34.10
2010;DHT22;1008;47.404;8.502;2023-06-14T13:25:18;30.20;35.30
2010;DHT22;1008;47.404;8.502;2023-06-14T13:27:44;30.10;34.90
2010;DHT22;1008;47.404;8.502;2023-06-14T13:30:12;30.40;33.90
2010;DHT22;1008;47.404;8.502;2023-06-14T13:32:38;30.00;34.00
2010;DHT22;1008;47.404;8.502;2023-06-14T13:35:07;30.10;33.70
2010;DHT22;1008;47.404;8.502;2023-06-14T13:37:33;29.90;35.30
2010;DHT22;1008;47.404;8.502;2023-06-14T13:40:00;29.50;33.70
2010;DHT22;1008;47.404;8.502;2023-06-14T13:42:28;29.60;34.90
2010;DHT22;1008;47.404;8.502;2023-06-14T13:44:56;29.80;35.00
2010;DHT22;1008;47.404;8.502;2023-06-14T13:47:23;30.00;35.40
2010;DHT22;1008;47.404;8.502;2023-06-14T13:49:50;30.30;35.10
2010;DHT22;1008;47.404;8.502;2023-06-14T13:52:18;30.10;34.50
2010;DHT22;1008;47.404;8.502;2023-06-14T13:54:45;30.00;36.70
2010;DHT22;1008;47.404;8.502;2023-06-14T13:57:12;30.20;35.40
2010;DHT22;1008;47.404;8.502;2023-06-14T13:59:38;30.20;35.30
2010;DHT22;1008;47.404;8.502;2023-06-14T14:02:06;30.40;36.10
2010;DHT22;1008;47.404;8.502;2023-06-14T14:04:33;30.20;34.80
2010;DHT22;1008;47.404;8.502;2023-06-14T14:07:00;29.80;35.60
2010;DHT22;1008;47.404;8.502;2023-06-14T14:09:28;30.10;34.90
2010;DHT22;1008;47.404;8.502;2023-06-14T14:11:55;30.20;36.90
2010;DHT22;1008;47.404;8.502;2023-06-14T14:14:22;30.30;34.00
2010;DHT22;1008;47.404;8.502;2023-06-14T14:16:50;30.10;35.20
2010;DHT22;1008;47.404;8.502;2023-06-14T14:19:18;30.00;35.30
2010;DHT22;1008;47.404;8.502;2023-06-14T14:21:45;30.30;34.30
2010;DHT22;1008;47.404;8.502;2023-06-14T14:24:12;30.20;34.40
2010;DHT22;1008;47.404;8.502;2023-06-14T14:26:40;30.40;34.60
2010;DHT22;1008;47.404;8.502;2023-06-14T14:29:07;30.30;34.10
2010;DHT22;1008;47.404;8.502;2023-06-14T14:31:36;30.10;34.20
2010;DHT22;1008;47.404;8.502;2023-06-14T14:34:03;30.10;34.50
2010;DHT22;1008;47.404;8.502;2023-06-14T14:36:30;30.00;34.80
2010;DHT22;1008;47.404;8.502;2023-06-14T14:38:58;30.10;35.40
2010;DHT22;1008;47.404;8.502;2023-06-14T14:41:25;30.10;35.60
2010;DHT22;1008;47.404;8.502;2023-06-14T14:43:53;30.20;36.50
2010;DHT22;1008;47.404;8.502;2023-06-14T14:46:20;30.10;36.50
2010;DHT22;1008;47.404;8.502;2023-06-14T14:48:47;30.00;35.90
2010;DHT22;1008;47.404;8.502;2023-06-14T14:51:13;30.30;34.50
2010;DHT22;1008;47.404;8.502;2023-06-14T14:53:40;30.30;35.60
2010;DHT22;1008;47.404;8.502;2023-06-14T14:56:07;30.40;35.00
2010;DHT22;1008;47.404;8.502;2023-06-14T14:58:34;30.40;35.00
2010;DHT22;1008;47.404;8.502;2023-06-14T15:01:02;30.30;35.00
2010;DHT22;1008;47.404;8.502;2023-06-14T15:03:29;30.10;35.70
2010;DHT22;1008;47.404;8.502;2023-06-14T15:05:55;30.10;35.60
2010;DHT22;1008;47.404;8.502;2023-06-14T15:08:22;30.00;36.50
2010;DHT22;1008;47.404;8.502;2023-06-14T15:10:49;30.20;36.40
2010;DHT22;1008;47.404;8.502;2023-06-14T15:13:16;30.00;34.70
2010;DHT22;1008;47.404;8.502;2023-06-14T15:15:43;29.70;34.80
2010;DHT22;1008;47.404;8.502;2023-06-14T15:18:12;29.40;35.90
2010;DHT22;1008;47.404;8.502;2023-06-14T15:20:39;29.60;37.00
2010;DHT22;1008;47.404;8.502;2023-06-14T15:23:07;30.00;38.00
2010;DHT22;1008;47.404;8.502;2023-06-14T15:25:33;29.90;36.50
2010;DHT22;1008;47.404;8.502;2023-06-14T15:28:00;29.90;35.80
2010;DHT22;1008;47.404;8.502;2023-06-14T15:30:31;29.90;36.20
2010;DHT22;1008;47.404;8.502;2023-06-14T15:32:58;30.00;36.80
2010;DHT22;1008;47.404;8.502;2023-06-14T15:35:26;30.10;35.60
2010;DHT22;1008;47.404;8.502;2023-06-14T15:37:53;29.80;36.50
2010;DHT22;1008;47.404;8.502;2023-06-14T15:40:20;30.00;36.80
2010;DHT22;1008;47.404;8.502;2023-06-14T15:42:47;30.00;35.90
2010;DHT22;1008;47.404;8.502;2023-06-14T15:45:13;30.00;36.80
2010;DHT22;1008;47.404;8.502;2023-06-14T15:47:41;30.00;36.30
2010;DHT22;1008;47.404;8.502;2023-06-14T15:50:09;29.90;36.70
2010;DHT22;1008;47.404;8.502;2023-06-14T15:52:37;29.70;35.60
2010;DHT22;1008;47.404;8.502;2023-06-14T15:55:05;29.50;35.90
2010;DHT22;1008;47.404;8.502;2023-06-14T15:57:32;29.10;36.80
2010;DHT22;1008;47.404;8.502;2023-06-14T15:59:58;29.30;37.10
2010;DHT22;1008;47.404;8.502;2023-06-14T16:02:25;29.50;36.20
2010;DHT22;1008;47.404;8.502;2023-06-14T16:04:52;29.40;36.80
2010;DHT22;1008;47.404;8.502;2023-06-14T16:07:19;29.50;36.70